Time;durP1;ratioP1;P1;durP2;ratioP2;P2;SDS_P1;SDS_P2;PMS_P1;PMS_P2;Temp;Humidity;BMP_temperature;BMP_pressure;BME280_temperature;BME280_humidity;BME280_pressure;Samples;Min_cycle;Max_cycle;Signal;HPM_P1;HPM_P2
2024/02/17 00:02:21;;;;;;;14.05;6.57;;;;;;;11.54;100.00;99515.44;5020600;28;20033;-73
2024/02/17 00:04:46;;;;;;;8.90;5.80;;;;;;;11.56;100.00;99526.13;5030081;28;20021;-73
2024/02/17 00:07:12;;;;;;;9.13;5.32;;;;;;;11.56;100.00;99531.53;5021601;28;20097;-73
2024/02/17 00:09:37;;;;;;;10.15;5.55;;;;;;;11.56;100.00;99521.53;5028455;28;20016;-72
2024/02/17 00:12:03;;;;;;;10.57;6.18;;;;;;;11.48;100.00;99523.53;5028218;28;20025;-73
2024/02/17 00:14:28;;;;;;;8.68;5.85;;;;;;;11.36;100.00;99501.50;5031424;28;20029;-73
2024/02/17 00:16:53;;;;;;;10.82;5.72;;;;;;;11.53;100.00;99526.50;5024176;28;20024;-72
2024/02/17 00:19:19;;;;;;;10.15;5.80;;;;;;;11.54;100.00;99533.59;5027293;28;20025;-72
2024/02/17 00:21:44;;;;;;;8.63;5.72;;;;;;;11.49;100.00;99528.72;5024449;28;20382;-73
2024/02/17 00:24:10;;;;;;;10.85;6.07;;;;;;;11.57;100.00;99533.19;5027992;28;20026;-72
2024/02/17 00:26:37;;;;;;;13.98;5.88;;;;;;;11.34;100.00;99511.69;5038715;28;20321;-76
2024/02/17 00:29:03;;;;;;;10.23;5.60;;;;;;;11.32;100.00;99513.75;5026460;28;20033;-77
2024/02/17 00:31:28;;;;;;;9.00;5.25;;;;;;;11.27;100.00;99489.13;5049274;28;20522;-74
2024/02/17 00:33:53;;;;;;;6.80;3.65;;;;;;;11.44;100.00;99539.31;5047552;28;20260;-75
2024/02/17 00:36:19;;;;;;;5.57;3.08;;;;;;;11.37;100.00;99520.28;5041169;28;20033;-76
2024/02/17 00:38:44;;;;;;;6.43;3.80;;;;;;;11.20;100.00;99513.41;5036744;28;20088;-74
2024/02/17 00:41:10;;;;;;;5.22;3.10;;;;;;;11.39;100.00;99553.41;5044885;28;20325;-75
2024/02/17 00:43:36;;;;;;;5.05;3.17;;;;;;;11.50;100.00;99552.13;5031303;28;20376;-75
2024/02/17 00:46:02;;;;;;;5.75;3.08;;;;;;;11.47;100.00;99555.19;5043448;28;20025;-76
2024/02/17 00:48:27;;;;;;;4.97;2.80;;;;;;;11.03;100.00;99491.13;5041835;28;20079;-75
2024/02/17 00:50:53;;;;;;;3.40;2.30;;;;;;;11.36;100.00;99550.25;5048819;28;20045;-75
2024/02/17 00:53:18;;;;;;;6.00;2.40;;;;;;;11.45;100.00;99561.81;5043122;28;20043;-76
2024/02/17 00:55:44;;;;;;;3.35;2.30;;;;;;;11.24;100.00;99536.38;5024934;28;20052;-76
2024/02/17 00:58:09;;;;;;;4.78;2.28;;;;;;;11.36;100.00;99566.50;5026145;28;20025;-76
2024/02/17 01:00:34;;;;;;;4.10;2.20;;;;;;;11.11;100.00;99534.34;5042825;28;20075;-75
2024/02/17 01:03:00;;;;;;;4.45;2.55;;;;;;;11.22;100.00;99541.13;5041303;28;20048;-76
2024/02/17 01:05:25;;;;;;;4.70;2.22;;;;;;;11.15;100.00;99538.34;5039756;28;20101;-76
2024/02/17 01:07:50;;;;;;;4.50;2.05;;;;;;;11.18;100.00;99550.66;5043772;28;20053;-76
2024/02/17 01:10:17;;;;;;;2.40;2.10;;;;;;;11.37;100.00;99585.31;5036337;28;20228;-76
2024/02/17 01:12:42;;;;;;;4.80;2.42;;;;;;;11.10;100.00;99537.22;5042649;28;20390;-74
2024/02/17 01:15:09;;;;;;;3.70;2.22;;;;;;;11.38;100.00;99584.25;5042261;28;20025;-74
2024/02/17 01:17:34;;;;;;;3.25;1.52;;;;;;;11.19;100.00;99544.22;5040676;28;20017;-74
2024/02/17 01:19:59;;;;;;;3.03;1.65;;;;;;;11.19;100.00;99553.19;5042167;28;20328;-75
2024/02/17 01:22:25;;;;;;;2.47;1.80;;;;;;;11.18;100.00;99553.38;5040451;28;20067;-74
2024/02/17 01:24:50;;;;;;;5.10;1.75;;;;;;;11.31;100.00;99575.19;5031544;28;20025;-76
2024/02/17 01:27:16;;;;;;;2.08;1.40;;;;;;;11.35;100.00;99590.06;5039535;28;20029;-76
2024/02/17 01:29:41;;;;;;;3.63;1.38;;;;;;;11.27;100.00;99581.22;5046178;28;20025;-75
2024/02/17 01:32:06;;;;;;;2.50;1.55;;;;;;;11.31;100.00;99582.50;5042293;28;20017;-75
2024/02/17 01:34:32;;;;;;;2.55;1.50;;;;;;;11.27;100.00;99583.91;5046788;28;20135;-75
2024/02/17 01:36:57;;;;;;;3.55;1.58;;;;;;;11.37;100.00;99587.16;5038774;28;20032;-75
2024/02/17 01:39:27;;;;;;;2.42;1.55;;;;;;;11.49;100.00;99593.78;5042086;28;20028;-74
2024/02/17 01:41:55;;;;;;;4.05;1.70;;;;;;;11.43;100.00;99602.66;5041137;28;20079;-75
2024/02/17 01:44:21;;;;;;;4.15;1.30;;;;;;;11.31;100.00;99579.78;5026526;28;20317;-75
2024/02/17 01:46:49;;;;;;;2.33;1.30;;;;;;;11.17;100.00;99559.81;5040857;28;20031;-74
2024/02/17 01:49:15;;;;;;;2.97;1.55;;;;;;;11.47;100.00;99597.69;5036529;28;20026;-75
2024/02/17 01:51:40;;;;;;;2.22;1.23;;;;;;;11.51;100.00;99605.28;5022995;28;20081;-75
2024/02/17 01:54:08;;;;;;;2.33;1.10;;;;;;;11.57;100.00;99620.75;5024603;28;20344;-74
2024/02/17 01:56:34;;;;;;;2.63;1.80;;;;;;;11.62;100.00;99623.75;5024679;28;20026;-75
2024/02/17 01:58:59;;;;;;;2.97;1.65;;;;;;;11.46;100.00;99596.88;5024724;28;20024;-75
2024/02/17 02:01:26;;;;;;;1.77;1.52;;;;;;;11.40;100.00;99598.47;5027620;28;20018;-75
2024/02/17 02:03:51;;;;;;;2.95;2.08;;;;;;;11.42;100.00;99600.97;5027571;28;20024;-74
2024/02/17 02:06:24;;;;;;;3.22;2.22;;;;;;;11.53;100.00;99619.47;5041153;28;20311;-75
2024/02/17 02:08:50;;;;;;;3.78;2.17;;;;;;;11.54;100.00;99642.81;5040627;28;20075;-74
2024/02/17 02:11:17;;;;;;;3.65;2.58;;;;;;;11.58;100.00;99627.88;5030846;28;20025;-75
2024/02/17 02:13:43;;;;;;;5.05;2.70;;;;;;;11.43;100.00;99612.69;5024178;28;20029;-75
2024/02/17 02:16:08;;;;;;;4.70;3.00;;;;;;;11.53;100.00;99648.44;5023423;28;20051;-76
2024/02/17 02:18:33;;;;;;;5.75;2.75;;;;;;;11.33;100.00;99613.78;5023522;28;20053;-76
2024/02/17 02:20:59;;;;;;;5.72;3.88;;;;;;;11.40;100.00;99630.16;5024846;28;20017;-77
2024/02/17 02:23:25;;;;;;;5.78;3.60;;;;;;;11.21;100.00;99612.56;5025152;28;20040;-76
2024/02/17 02:25:54;;;;;;;5.45;3.97;;;;;;;11.36;100.00;99626.13;5039703;28;20021;-76
2024/02/17 02:28:20;;;;;;;6.78;4.35;;;;;;;11.53;100.00;99651.16;5024636;28;20320;-76
2024/02/17 02:30:45;;;;;;;6.97;4.82;;;;;;;11.37;100.00;99641.34;5037102;28;20032;-77
2024/02/17 02:33:10;;;;;;;6.75;4.30;;;;;;;11.48;100.00;99654.44;5032664;28;20049;-76
2024/02/17 02:35:36;;;;;;;9.95;4.72;;;;;;;11.40;100.00;99641.81;5027052;28;20033;-77
2024/02/17 02:38:02;;;;;;;8.15;5.22;;;;;;;11.36;100.00;99650.50;5028271;28;20317;-77
2024/02/17 02:40:28;;;;;;;8.23;5.10;;;;;;;11.23;100.00;99628.66;5026011;28;20022;-75
2024/02/17 02:42:53;;;;;;;10.10;5.80;;;;;;;11.31;100.00;99661.06;5026754;28;20028;-76
2024/02/17 02:45:18;;;;;;;8.15;5.47;;;;;;;11.25;100.00;99659.09;5030139;28;20264;-77
2024/02/17 02:47:44;;;;;;;10.38;5.47;;;;;;;11.23;100.00;99664.69;5027738;28;20272;-77
2024/02/17 02:50:10;;;;;;;9.82;5.88;;;;;;;11.17;100.00;99657.31;5045234;28;20036;-77
2024/02/17 02:52:36;;;;;;;8.55;5.22;;;;;;;11.03;100.00;99640.06;5026610;28;20018;-76
2024/02/17 02:55:01;;;;;;;9.52;6.20;;;;;;;11.13;100.00;99662.28;5032610;28;20527;-77
2024/02/17 02:57:26;;;;;;;10.00;6.18;;;;;;;11.15;100.00;99660.22;5024716;28;20312;-76
2024/02/17 02:59:52;;;;;;;12.65;6.68;;;;;;;10.72;100.00;99605.84;5053419;28;20031;-77
2024/02/17 03:02:17;;;;;;;13.80;6.50;;;;;;;10.99;100.00;99643.31;5030330;28;20036;-76
2024/02/17 03:04:42;;;;;;;13.70;6.80;;;;;;;11.08;100.00;99666.56;5028692;28;20056;-77
2024/02/17 03:07:07;;;;;;;12.15;6.75;;;;;;;11.18;100.00;99678.78;5029867;28;20028;-76
2024/02/17 03:09:33;;;;;;;13.52;7.97;;;;;;;11.09;100.00;99670.97;5024647;28;20029;-77
2024/02/17 03:11:59;;;;;;;11.07;7.22;;;;;;;11.06;100.00;99679.47;5029048;28;20021;-77
2024/02/17 03:14:24;;;;;;;14.60;7.43;;;;;;;11.10;100.00;99684.31;5049809;28;20025;-76
2024/02/17 03:16:50;;;;;;;16.10;8.30;;;;;;;11.00;100.00;99675.59;5026945;28;20025;-76
2024/02/17 03:19:15;;;;;;;17.48;9.00;;;;;;;10.72;100.00;99646.44;5025902;28;20336;-76
2024/02/17 03:21:40;;;;;;;16.90;8.70;;;;;;;10.82;100.00;99669.69;5029250;28;20033;-76
2024/02/17 03:24:06;;;;;;;17.55;8.88;;;;;;;10.80;100.00;99679.88;5026537;28;20044;-76
2024/02/17 03:26:31;;;;;;;17.08;9.70;;;;;;;10.87;100.00;99694.34;5038355;28;20021;-76
2024/02/17 03:28:57;;;;;;;17.52;9.68;;;;;;;10.85;100.00;99702.66;5052423;28;20017;-76
2024/02/17 03:31:23;;;;;;;18.10;10.32;;;;;;;10.83;100.00;99698.47;5054625;28;20037;-76
2024/02/17 03:33:50;;;;;;;19.70;10.50;;;;;;;10.86;100.00;99715.16;5033257;28;20040;-76
2024/02/17 03:36:16;;;;;;;19.30;10.70;;;;;;;10.81;100.00;99717.56;5024030;28;20261;-76
2024/02/17 03:38:41;;;;;;;19.77;10.32;;;;;;;10.82;100.00;99727.41;5031402;28;20021;-76
2024/02/17 03:41:07;;;;;;;20.70;10.85;;;;;;;10.83;100.00;99714.69;5033705;28;20282;-78
2024/02/17 03:43:32;;;;;;;22.95;10.65;;;;;;;10.92;100.00;99724.41;5038227;28;20037;-77
2024/02/17 03:45:57;;;;;;;25.95;11.98;;;;;;;10.91;100.00;99733.56;5030779;28;20021;-77
2024/02/17 03:48:23;;;;;;;21.35;11.68;;;;;;;10.78;100.00;99714.41;5044247;28;20029;-76
2024/02/17 03:50:50;;;;;;;22.42;11.40;;;;;;;10.97;100.00;99749.91;5031804;28;20018;-77
2024/02/17 03:53:17;;;;;;;24.33;11.68;;;;;;;10.85;100.00;99739.72;5028612;28;20025;-77
2024/02/17 03:55:43;;;;;;;21.75;11.25;;;;;;;10.82;100.00;99742.78;5044588;28;20053;-77
2024/02/17 03:58:08;;;;;;;20.45;10.45;;;;;;;10.84;100.00;99752.41;5024550;28;20256;-77
2024/02/17 04:00:33;;;;;;;22.55;12.05;;;;;;;10.72;100.00;99730.34;5024643;28;20025;-77
2024/02/17 04:02:58;;;;;;;22.98;12.18;;;;;;;10.86;100.00;99757.66;5044815;28;20028;-77
2024/02/17 04:05:24;;;;;;;25.00;12.43;;;;;;;10.81;100.00;99749.22;5043605;28;20025;-77
2024/02/17 04:07:49;;;;;;;26.73;11.48;;;;;;;10.78;100.00;99744.19;5028484;28;20079;-77
2024/02/17 04:10:15;;;;;;;27.15;12.55;;;;;;;10.76;100.00;99757.88;5046475;28;20021;-78
2024/02/17 04:12:41;;;;;;;24.67;11.85;;;;;;;10.86;100.00;99773.88;5032303;28;20041;-78
2024/02/17 04:15:07;;;;;;;29.42;12.82;;;;;;;10.83;100.00;99766.13;5029897;28;20036;-77
2024/02/17 04:17:32;;;;;;;25.98;12.30;;;;;;;10.87;100.00;99780.97;5032364;28;20083;-77
2024/02/17 04:19:57;;;;;;;29.33;12.88;;;;;;;10.82;100.00;99784.25;5024703;28;20029;-77
2024/02/17 04:22:24;;;;;;;26.33;11.95;;;;;;;10.86;100.00;99795.53;5027056;28;20032;-77
2024/02/17 04:24:49;;;;;;;26.40;12.20;;;;;;;10.81;100.00;99789.84;5032538;28;20064;-78
2024/02/17 04:27:15;;;;;;;27.85;12.63;;;;;;;10.79;100.00;99786.47;5027462;28;20022;-77
2024/02/17 04:29:41;;;;;;;29.30;13.38;;;;;;;10.89;100.00;99816.84;5031505;28;20076;-76
2024/02/17 04:32:06;;;;;;;27.40;13.20;;;;;;;10.68;100.00;99777.72;5039167;28;20037;-77
2024/02/17 04:34:31;;;;;;;30.15;12.93;;;;;;;10.76;100.00;99795.78;5032573;28;20083;-76
2024/02/17 04:36:57;;;;;;;27.00;13.45;;;;;;;10.72;100.00;99798.00;5029807;28;20021;-77
2024/02/17 04:39:22;;;;;;;25.40;12.95;;;;;;;10.76;100.00;99803.91;5024070;28;20321;-77
2024/02/17 04:41:47;;;;;;;28.17;13.07;;;;;;;10.78;100.00;99815.41;5032091;28;20024;-77
2024/02/17 04:44:13;;;;;;;29.98;12.65;;;;;;;10.66;100.00;99798.75;5042549;28;20025;-78
2024/02/17 04:46:38;;;;;;;26.55;12.90;;;;;;;10.79;100.00;99827.06;5041229;28;20321;-76
2024/02/17 04:49:03;;;;;;;30.70;14.07;;;;;;;10.69;100.00;99811.06;5024744;28;20258;-77
2024/02/17 04:51:29;;;;;;;30.95;13.23;;;;;;;10.66;100.00;99812.28;5026064;28;20236;-76
2024/02/17 04:53:55;;;;;;;25.80;13.18;;;;;;;10.82;100.00;99832.09;5025272;28;20033;-77
2024/02/17 04:56:20;;;;;;;31.60;14.30;;;;;;;10.70;100.00;99819.00;5024591;28;20018;-77
2024/02/17 04:58:45;;;;;;;29.83;13.82;;;;;;;10.80;100.00;99840.44;5027734;28;20026;-77
2024/02/17 05:01:11;;;;;;;31.58;13.93;;;;;;;10.86;100.00;99855.09;5028936;28;20024;-77
2024/02/17 05:03:36;;;;;;;30.42;13.20;;;;;;;10.75;100.00;99840.97;5026293;28;20033;-76
2024/02/17 05:06:02;;;;;;;26.23;13.30;;;;;;;10.71;100.00;99842.31;5042284;28;20025;-75
2024/02/17 05:08:28;;;;;;;26.45;13.27;;;;;;;10.53;100.00;99830.94;5045162;28;20017;-76
2024/02/17 05:10:53;;;;;;;23.10;12.10;;;;;;;10.51;100.00;99833.84;5021911;28;20025;-75
2024/02/17 05:13:18;;;;;;;27.58;13.30;;;;;;;10.41;100.00;99826.97;5021133;28;20048;-76
2024/02/17 05:15:44;;;;;;;27.30;13.00;;;;;;;10.29;100.00;99843.56;5028435;28;20021;-77
2024/02/17 05:18:09;;;;;;;30.00;13.18;;;;;;;10.15;100.00;99846.16;5026967;28;20025;-75
2024/02/17 05:20:34;;;;;;;28.65;13.25;;;;;;;10.00;100.00;99856.84;5042849;28;20045;-76
2024/02/17 05:23:00;;;;;;;29.33;13.65;;;;;;;9.96;100.00;99858.22;5029224;28;20045;-78
2024/02/17 05:25:25;;;;;;;29.13;13.27;;;;;;;9.90;100.00;99883.22;5030791;28;20029;-80
2024/02/17 05:27:50;;;;;;;27.88;12.73;;;;;;;9.84;100.00;99876.66;5034775;28;20040;-79
2024/02/17 05:30:17;;;;;;;29.67;12.75;;;;;;;9.78;100.00;99880.88;5023142;28;20038;-82
2024/02/17 05:32:43;;;;;;;29.92;13.32;;;;;;;9.75;100.00;99893.91;5034518;28;20332;-83
2024/02/17 05:35:09;;;;;;;29.33;13.73;;;;;;;9.66;100.00;99896.59;5030715;28;20050;-82
2024/02/17 05:37:34;;;;;;;33.47;13.90;;;;;;;9.34;100.00;99856.13;5048850;28;20025;-82
2024/02/17 05:40:01;;;;;;;32.08;12.88;;;;;;;9.54;100.00;99897.13;5030017;28;20335;-82
2024/02/17 05:42:26;;;;;;;32.03;13.57;;;;;;;9.47;100.00;99906.94;5034050;28;20021;-83
2024/02/17 05:44:51;;;;;;;35.85;14.10;;;;;;;9.28;100.00;99897.31;5032904;28;20312;-82
2024/02/17 05:47:17;;;;;;;34.47;13.82;;;;;;;9.19;100.00;99902.66;5030934;28;20228;-82
2024/02/17 05:49:42;;;;;;;33.08;14.25;;;;;;;9.06;100.00;99894.22;5026001;28;20033;-83
2024/02/17 05:52:07;;;;;;;40.00;14.98;;;;;;;9.07;100.00;99914.00;5033041;28;20039;-85
2024/02/17 05:54:32;;;;;;;43.42;15.38;;;;;;;8.96;100.00;99905.19;5028240;28;20053;-84
2024/02/17 05:56:59;;;;;;;39.30;14.55;;;;;;;9.00;100.00;99924.59;5025295;28;20025;-84
2024/02/17 05:59:24;;;;;;;38.47;14.80;;;;;;;9.07;100.00;99932.88;5026861;28;20029;-82
2024/02/17 06:01:49;;;;;;;39.97;14.93;;;;;;;9.09;100.00;99922.75;5023920;28;20268;-83
2024/02/17 06:04:15;;;;;;;40.38;14.02;;;;;;;9.06;100.00;99936.56;5032366;28;20054;-76
2024/02/17 06:06:40;;;;;;;45.55;14.65;;;;;;;9.12;100.00;99952.97;5030143;28;20094;-77
2024/02/17 06:09:05;;;;;;;37.83;14.10;;;;;;;9.09;100.00;99942.50;5034565;28;20029;-77
2024/02/17 06:11:31;;;;;;;41.03;15.32;;;;;;;9.05;100.00;99918.72;5023547;28;20033;-73
2024/02/17 06:13:57;;;;;;;38.17;14.77;;;;;;;9.14;100.00;99944.69;5032220;28;20029;-85
2024/02/17 06:16:26;;;;;;;36.83;13.95;;;;;;;9.16;100.00;99950.78;5038231;28;20033;-85
2024/02/17 06:21:36;;;;;;;37.15;14.30;;;;;;;9.39;100.00;99967.19;5053794;28;20048;-85
2024/02/17 06:24:02;;;;;;;39.13;15.43;;;;;;;9.39;100.00;99980.69;5034653;28;20017;-85
2024/02/17 06:26:29;;;;;;;35.67;13.88;;;;;;;9.28;100.00;99962.97;5031403;28;20021;-87
2024/02/17 06:28:57;;;;;;;37.17;14.70;;;;;;;9.25;100.00;99962.44;5034677;28;20028;-85
2024/02/17 06:31:23;;;;;;;39.28;15.57;;;;;;;9.38;100.00;99985.25;5034145;28;20021;-83
2024/02/17 06:33:49;;;;;;;37.17;14.55;;;;;;;9.29;100.00;99964.63;5036253;28;20040;-83
2024/02/17 06:36:14;;;;;;;38.75;14.73;;;;;;;9.39;100.00;99986.94;5038669;28;20092;-83
2024/02/17 06:38:41;;;;;;;47.25;15.82;;;;;;;9.51;100.00;100002.81;5041771;28;20033;-84
2024/02/17 06:41:08;;;;;;;37.85;14.70;;;;;;;9.54;100.00;100000.63;5037868;28;20018;-80
2024/02/17 06:43:33;;;;;;;43.83;14.57;;;;;;;9.58;100.00;100011.94;5033582;28;20018;-82
2024/02/17 06:45:59;;;;;;;32.97;14.10;;;;;;;9.69;100.00;100018.88;5039518;28;20028;-79
2024/02/17 06:48:28;;;;;;;34.38;15.18;;;;;;;9.71;100.00;100019.56;5027493;28;20336;-71
2024/02/17 06:50:54;;;;;;;38.53;15.15;;;;;;;9.82;100.00;100027.31;5043861;28;20025;-71
2024/02/17 06:53:19;;;;;;;36.58;13.95;;;;;;;9.85;100.00;100025.16;5046364;28;20366;-71
2024/02/17 06:55:45;;;;;;;40.67;14.82;;;;;;;9.90;100.00;100031.88;5048909;28;20021;-74
2024/02/17 06:58:11;;;;;;;41.03;15.77;;;;;;;9.98;100.00;100040.00;5048677;28;20022;-82
2024/02/17 07:00:36;;;;;;;43.35;16.50;;;;;;;10.09;100.00;100032.41;5023262;28;20104;-72
2024/02/17 07:03:04;;;;;;;37.58;14.70;;;;;;;9.86;100.00;99999.78;5029372;28;20021;-72
2024/02/17 07:05:29;;;;;;;39.30;14.63;;;;;;;10.20;100.00;100044.72;5039532;28;20067;-75
2024/02/17 07:07:54;;;;;;;34.25;13.50;;;;;;;10.23;100.00;100047.09;5045608;28;20025;-72
2024/02/17 07:10:20;;;;;;;38.75;14.45;;;;;;;10.37;100.00;100050.16;5043807;28;20096;-72
2024/02/17 07:12:45;;;;;;;32.97;13.50;;;;;;;10.52;100.00;100045.72;5027319;28;20017;-72
2024/02/17 07:15:11;;;;;;;32.60;13.73;;;;;;;11.13;100.00;100025.22;5038260;28;20052;-71
2024/02/17 07:17:36;;;;;;;30.05;12.98;;;;;;;11.60;100.00;100020.69;5041466;28;20035;-72
2024/02/17 07:20:01;;;;;;;27.25;12.30;;;;;;;11.91;100.00;100012.50;5029009;28;20025;-72
2024/02/17 07:22:26;;;;;;;25.25;11.63;;;;;;;12.99;100.00;100022.06;5047112;28;20029;-72
2024/02/17 07:24:53;;;;;;;20.40;10.50;;;;;;;13.12;100.00;99986.06;5041597;28;20024;-72
2024/02/17 07:27:19;;;;;;;21.02;11.27;;;;;;;13.08;100.00;99988.34;5041853;28;20021;-72
2024/02/17 07:29:44;;;;;;;21.83;11.93;;;;;;;12.44;100.00;100002.53;5043895;28;20056;-74
2024/02/17 07:32:10;;;;;;;23.15;11.52;;;;;;;12.00;100.00;100002.47;5030169;28;20312;-80
2024/02/17 07:34:38;;;;;;;18.20;10.32;;;;;;;11.83;100.00;100031.53;5031558;28;20343;-78
2024/02/17 07:37:04;;;;;;;23.63;10.57;;;;;;;11.44;100.00;99999.13;5048411;28;20025;-79
2024/02/17 07:39:30;;;;;;;19.35;10.25;;;;;;;11.70;100.00;100031.28;5021697;28;20030;-80
2024/02/17 07:41:55;;;;;;;19.95;10.75;;;;;;;11.49;100.00;100010.28;5026818;28;20381;-79
2024/02/17 07:44:23;;;;;;;24.15;10.15;;;;;;;11.89;100.00;100052.53;5026468;28;20105;-81
2024/02/17 07:46:49;;;;;;;21.42;11.02;;;;;;;12.04;100.00;100044.44;5031444;28;20059;-84
2024/02/17 07:49:15;;;;;;;22.17;11.50;;;;;;;11.90;100.00;100053.41;5028009;28;20351;-84
2024/02/17 07:51:43;;;;;;;20.33;10.27;;;;;;;11.79;100.00;100043.78;5025475;28;20021;-81
2024/02/17 07:54:08;;;;;;;20.25;10.25;;;;;;;12.09;100.00;100050.19;5032444;28;20029;-74
2024/02/17 07:56:33;;;;;;;18.92;10.38;;;;;;;12.58;100.00;100048.88;5016094;28;20075;-66
2024/02/17 07:58:58;;;;;;;20.63;9.90;;;;;;;12.72;100.00;100026.31;5041565;28;20236;-67
2024/02/17 08:01:24;;;;;;;18.33;9.38;;;;;;;15.39;100.00;100041.28;5039260;28;20025;-68
2024/02/17 08:03:49;;;;;;;17.33;9.48;;;;;;;17.72;100.00;100008.22;5022773;28;20028;-67
2024/02/17 08:06:21;;;;;;;14.65;8.63;;;;;;;19.30;100.00;100006.97;5044279;28;20092;-71
2024/02/17 08:08:50;;;;;;;16.40;9.10;;;;;;;20.85;100.00;100029.06;5019205;28;20048;-68
2024/02/17 08:11:16;;;;;;;13.75;8.05;;;;;;;21.73;100.00;100038.91;5039010;28;20029;-68
2024/02/17 08:13:42;;;;;;;15.45;8.75;;;;;;;22.04;100.00;100045.81;5021076;28;20101;-76
2024/02/17 08:16:08;;;;;;;13.82;8.43;;;;;;;23.06;90.39;100029.25;5019723;28;20032;-68
2024/02/17 08:18:34;;;;;;;10.48;7.63;;;;;;;23.78;78.53;100048.38;5038938;28;20029;-66
2024/02/17 08:21:02;;;;;;;13.15;7.32;;;;;;;24.19;71.92;100050.72;5039863;28;20032;-67
2024/02/17 08:23:28;;;;;;;8.87;6.27;;;;;;;25.43;69.31;100051.28;5037381;28;20052;-80
2024/02/17 08:25:54;;;;;;;13.30;7.15;;;;;;;25.52;64.24;100030.28;5020867;28;20021;-67
2024/02/17 08:28:19;;;;;;;10.45;6.35;;;;;;;25.45;64.45;100060.16;5036157;28;20525;-67
2024/02/17 08:30:45;;;;;;;9.10;5.75;;;;;;;26.24;62.75;100052.63;5040105;28;20096;-68
2024/02/17 08:33:10;;;;;;;10.52;6.63;;;;;;;25.21;63.20;100058.97;5022823;28;20021;-66
2024/02/17 08:35:37;;;;;;;9.63;7.20;;;;;;;24.66;62.82;100061.91;5040186;28;20291;-66
2024/02/17 08:38:03;;;;;;;12.48;6.85;;;;;;;23.78;68.74;100042.84;5039077;28;20075;-67
2024/02/17 08:40:28;;;;;;;9.90;6.47;;;;;;;23.88;68.56;100074.47;5038186;28;20144;-68
2024/02/17 08:42:53;;;;;;;10.95;7.40;;;;;;;23.87;67.40;100083.81;5035664;28;20316;-70
2024/02/17 08:45:19;;;;;;;10.27;6.90;;;;;;;25.06;65.36;100079.06;5040828;28;20025;-68
2024/02/17 08:47:44;;;;;;;13.05;6.90;;;;;;;25.54;62.63;100083.50;5024607;28;20049;-66
2024/02/17 08:50:10;;;;;;;7.85;4.82;;;;;;;24.85;62.22;100090.00;5037660;28;20044;-66
2024/02/17 08:52:35;;;;;;;7.03;5.75;;;;;;;22.29;69.23;100088.72;5039969;28;20025;-67
2024/02/17 08:55:00;;;;;;;6.90;5.10;;;;;;;20.82;81.78;100101.91;5041854;28;20029;-68
2024/02/17 08:57:26;;;;;;;9.10;5.78;;;;;;;19.37;100.00;100109.25;5033267;28;20033;-67
2024/02/17 08:59:51;;;;;;;8.65;5.82;;;;;;;18.08;100.00;100110.81;5038063;28;20044;-67
2024/02/17 09:02:18;;;;;;;7.78;5.93;;;;;;;16.59;100.00;100115.25;5046340;28;20169;-67
2024/02/17 09:04:45;;;;;;;9.23;5.90;;;;;;;16.56;100.00;100123.84;5041393;28;20201;-75
2024/02/17 09:07:11;;;;;;;10.82;6.60;;;;;;;16.36;100.00;100130.13;5033120;28;20227;-78
2024/02/17 09:09:36;;;;;;;10.55;6.35;;;;;;;16.18;100.00;100118.97;5041861;28;20022;-68
2024/02/17 09:12:02;;;;;;;11.32;6.50;;;;;;;16.30;100.00;100130.97;5023103;28;20013;-68
2024/02/17 09:14:33;;;;;;;10.50;6.95;;;;;;;17.47;100.00;100128.56;5044525;28;20202;-67
2024/02/17 09:17:00;;;;;;;9.63;6.43;;;;;;;18.18;100.00;100128.44;5040781;28;20053;-67
2024/02/17 09:19:27;;;;;;;10.75;6.40;;;;;;;17.70;100.00;100141.72;5040966;28;20028;-68
2024/02/17 09:21:55;;;;;;;11.48;6.90;;;;;;;16.59;100.00;100107.03;5038338;28;20058;-68
2024/02/17 09:24:25;;;;;;;11.17;6.40;;;;;;;16.26;100.00;100146.09;5040380;28;20084;-67
2024/02/17 09:26:50;;;;;;;12.40;7.63;;;;;;;15.87;100.00;100138.66;5037238;28;20037;-71
2024/02/17 09:29:16;;;;;;;10.25;6.65;;;;;;;16.45;100.00;100149.88;5039739;28;20041;-71
2024/02/17 09:31:41;;;;;;;15.75;8.07;;;;;;;16.89;100.00;100150.34;5040189;28;20045;-71
2024/02/17 09:34:06;;;;;;;11.18;6.75;;;;;;;16.91;100.00;100126.38;5022645;28;20060;-72
2024/02/17 09:36:32;;;;;;;11.68;6.65;;;;;;;19.32;100.00;100132.97;5041009;28;20025;-72
2024/02/17 09:38:57;;;;;;;10.48;6.55;;;;;;;19.91;100.00;100154.25;5042857;28;20053;-73
2024/02/17 09:41:22;;;;;;;10.05;6.03;;;;;;;22.83;97.89;100152.53;5041328;28;20021;-72
2024/02/17 09:43:49;;;;;;;10.90;6.57;;;;;;;23.30;85.43;100132.84;5038011;28;20025;-71
2024/02/17 09:46:17;;;;;;;8.20;5.63;;;;;;;23.80;80.75;100162.25;5043678;28;20021;-71
2024/02/17 09:48:42;;;;;;;11.13;6.38;;;;;;;21.60;87.07;100176.91;5037061;28;20025;-70
2024/02/17 09:51:07;;;;;;;9.75;6.30;;;;;;;20.38;95.09;100185.72;5023509;28;20036;-71
2024/02/17 09:53:36;;;;;;;9.77;6.90;;;;;;;18.08;100.00;100154.66;5041653;28;20028;-71
2024/02/17 09:56:02;;;;;;;9.70;6.78;;;;;;;17.08;100.00;100165.88;5041236;28;20021;-72
2024/02/17 09:58:27;;;;;;;12.23;6.95;;;;;;;16.63;100.00;100201.19;5040001;28;20055;-72
2024/02/17 10:00:53;;;;;;;11.68;6.28;;;;;;;16.07;100.00;100190.59;5039072;28;20021;-72
2024/02/17 10:03:19;;;;;;;14.65;6.63;;;;;;;15.86;100.00;100200.56;5038339;28;20029;-72
2024/02/17 10:05:44;;;;;;;9.27;6.43;;;;;;;15.99;100.00;100195.16;5041232;28;20021;-72
2024/02/17 10:08:11;;;;;;;10.02;5.97;;;;;;;16.03;100.00;100208.41;5040670;28;20051;-72
2024/02/17 10:10:38;;;;;;;12.23;7.28;;;;;;;15.59;100.00;100207.78;5034932;28;20021;-72
2024/02/17 10:13:06;;;;;;;10.80;7.35;;;;;;;15.81;100.00;100200.34;5040845;28;20034;-72
2024/02/17 10:15:32;;;;;;;12.90;7.72;;;;;;;16.99;100.00;100210.91;5039795;28;20063;-72
2024/02/17 10:17:57;;;;;;;13.00;8.13;;;;;;;20.24;100.00;100213.38;5037938;28;20034;-72
2024/02/17 10:20:23;;;;;;;10.05;5.82;;;;;;;24.88;91.26;100210.44;5042782;28;20230;-72
2024/02/17 10:22:48;;;;;;;8.40;5.82;;;;;;;28.30;69.52;100184.44;5035687;28;20128;-72
2024/02/17 10:25:14;;;;;;;8.13;5.15;;;;;;;28.14;60.33;100209.56;5038770;28;20023;-70
2024/02/17 10:27:41;;;;;;;8.55;5.53;;;;;;;25.92;63.65;100219.25;5038828;28;20029;-71
2024/02/17 10:30:07;;;;;;;8.60;6.13;;;;;;;23.34;71.65;100225.16;5037456;28;20116;-71
2024/02/17 10:32:33;;;;;;;8.85;5.72;;;;;;;21.18;82.64;100191.63;5036934;28;20275;-71
2024/02/17 10:35:05;;;;;;;8.55;5.25;;;;;;;20.31;86.68;100225.13;5040087;28;20025;-71
2024/02/17 10:37:32;;;;;;;10.55;6.22;;;;;;;18.54;100.00;100219.25;5036015;28;20036;-71
2024/02/17 10:40:04;;;;;;;12.18;7.30;;;;;;;17.66;100.00;100237.13;5042386;28;20027;-71
2024/02/17 10:42:30;;;;;;;10.57;6.45;;;;;;;17.13;100.00;100228.97;5035652;28;20084;-70
2024/02/17 10:44:56;;;;;;;10.77;5.90;;;;;;;16.99;100.00;100200.81;5040926;28;20033;-71
2024/02/17 10:47:27;;;;;;;12.38;5.75;;;;;;;18.14;100.00;100239.50;5036074;28;20347;-71
2024/02/17 10:50:03;;;;;;;10.85;5.95;;;;;;;19.16;100.00;100239.50;5042257;28;20304;-71
2024/02/17 10:52:34;;;;;;;8.07;5.15;;;;;;;21.57;96.34;100214.03;5041145;28;20042;-72
2024/02/17 10:55:06;;;;;;;7.45;4.80;;;;;;;24.98;72.31;100216.06;5044728;28;20092;-72
2024/02/17 10:57:39;;;;;;;7.45;5.55;;;;;;;26.47;64.03;100223.31;5041597;28;20022;-71
2024/02/17 11:00:08;;;;;;;9.18;5.45;;;;;;;28.31;57.45;100217.53;5040781;28;20056;-72
2024/02/17 11:02:34;;;;;;;8.00;5.03;;;;;;;28.08;54.42;100213.47;5047856;28;20020;-72
2024/02/17 11:04:59;;;;;;;7.50;4.47;;;;;;;28.28;54.94;100214.50;5042148;28;20048;-71
2024/02/17 11:07:26;;;;;;;8.82;5.00;;;;;;;27.95;52.29;100222.44;5044613;28;20308;-71
2024/02/17 11:10:03;;;;;;;6.25;4.05;;;;;;;32.20;49.86;100217.22;5042108;28;20049;-74
2024/02/17 11:12:28;;;;;;;8.85;4.43;;;;;;;31.41;49.13;100215.41;5044641;28;20066;-72
2024/02/17 11:15:07;;;;;;;8.13;4.63;;;;;;;31.15;45.71;100207.47;5040379;28;20021;-72